Time;durP1;ratioP1;P1;durP2;ratioP2;P2;SDS_P1;SDS_P2;PMS_P1;PMS_P2;Temp;Humidity;BMP_temperature;BMP_pressure;BME280_temperature;BME280_humidity;BME280_pressure;Samples;Min_cycle;Max_cycle;Signal;HPM_P1;HPM_P2
2022/10/18 00:00:27;;;;;;;9.45;5.13;;;;;;;15.89;82.51;100746.22;1088052;54;20026;-82
2022/10/18 00:03:35;;;;;;;10.00;5.75;;;;;;;15.68;84.08;100753.81;1088254;54;20018;-82
2022/10/18 00:06:51;;;;;;;7.63;5.40;;;;;;;15.74;83.43;100759.44;1088490;46;20011;-81
2022/10/18 00:07:59;;;;;;;8.48;5.43;;;;;;;15.80;83.31;100755.25;1088728;46;20038;-79
2022/10/18 00:13:42;;;;;;;9.00;5.88;;;;;;;15.49;84.91;100746.84;1088340;54;20033;-81
2022/10/18 00:19:24;;;;;;;;;;;;;;;;;;;;;
2022/10/18 00:58:31;;;;;;;6.15;4.13;;;;;;;15.53;83.66;100757.13;1088238;54;20030;-82
2022/10/18 01:22:57;;;;;;;;;;;;;;;;;;;;;
2022/10/18 01:28:35;;;;;;;11.13;5.00;;;;;;;15.50;83.75;100767.38;1088090;54;20055;-81
2022/10/18 02:24:36;;;;;;;8.75;4.30;;;;;;;15.56;83.22;100735.25;1087924;54;20030;-81
2022/10/18 02:31:43;;;;;;;7.88;4.30;;;;;;;15.70;82.57;100725.69;1087843;54;20031;-81
2022/10/18 02:32:49;;;;;;;7.82;4.07;;;;;;;15.79;82.64;100720.34;1087954;47;20030;-80
2022/10/18 02:33:58;;;;;;;9.98;4.82;;;;;;;15.84;82.09;100724.28;1087738;54;20027;-78
2022/10/18 02:35:06;;;;;;;7.43;4.25;;;;;;;15.86;81.91;100722.25;1091106;47;20038;-79
2022/10/18 02:36:19;;;;;;;12.00;5.35;;;;;;;15.81;82.26;100727.28;1089320;47;20030;-78
2022/10/18 02:37:20;;;;;;;8.25;5.07;;;;;;;15.79;82.49;100723.03;1090420;47;20030;-78
2022/10/18 02:38:27;;;;;;;9.55;4.78;;;;;;;15.85;82.20;100725.97;1087758;54;20038;-79
2022/10/18 02:39:31;;;;;;;7.32;4.40;;;;;;;15.87;82.07;100725.81;1088947;47;20037;-79
2022/10/18 02:40:35;;;;;;;6.07;4.13;;;;;;;15.89;82.24;100723.78;1088298;47;20026;-79
2022/10/18 02:41:37;;;;;;;7.95;4.70;;;;;;;15.92;81.96;100718.06;1088774;47;20033;-79
2022/10/18 02:42:46;;;;;;;9.63;5.00;;;;;;;15.88;82.15;100720.25;1090930;47;20035;-78
2022/10/18 02:43:48;;;;;;;10.10;4.85;;;;;;;15.93;82.24;100721.59;1087631;54;20034;-78
2022/10/18 02:44:52;;;;;;;9.98;4.93;;;;;;;15.97;82.01;100717.59;1087752;54;20057;-78
2022/10/18 02:45:53;;;;;;;10.63;4.90;;;;;;;16.00;81.62;100717.25;1087492;54;20038;-78
2022/10/18 02:46:57;;;;;;;13.15;4.88;;;;;;;15.96;81.98;100716.75;1087757;54;20043;-78
2022/10/18 02:47:59;;;;;;;8.13;4.70;;;;;;;16.03;81.63;100723.16;1087931;54;20037;-78
2022/10/18 02:49:03;;;;;;;7.40;4.28;;;;;;;16.08;81.53;100714.59;1089617;47;20030;-78
2022/10/18 02:50:05;;;;;;;9.25;4.97;;;;;;;15.97;81.56;100712.19;1087740;54;20068;-78
2022/10/18 02:51:09;;;;;;;8.43;5.32;;;;;;;16.03;81.62;100712.38;1087873;54;20054;-78
2022/10/18 02:52:14;;;;;;;6.88;4.22;;;;;;;16.02;81.32;100710.69;1087785;54;20034;-79
2022/10/18 02:53:18;;;;;;;9.05;4.70;;;;;;;16.05;81.42;100712.22;1089022;47;20031;-79
2022/10/18 02:54:20;;;;;;;9.45;4.70;;;;;;;16.04;81.30;100707.81;1087791;54;20031;-78
2022/10/18 02:55:24;;;;;;;9.85;4.90;;;;;;;15.99;81.53;100713.72;1088200;47;20038;-79
2022/10/18 02:56:25;;;;;;;10.57;4.85;;;;;;;16.01;81.53;100709.00;1089955;47;20038;-79
2022/10/18 02:57:29;;;;;;;8.20;4.97;;;;;;;16.03;81.54;100707.00;1087668;54;20035;-79
2022/10/18 02:58:31;;;;;;;7.97;4.10;;;;;;;16.07;81.43;100707.50;1088229;47;20038;-79
2022/10/18 02:59:35;;;;;;;7.40;4.30;;;;;;;16.13;81.25;100708.69;1088202;39;20475;-79
2022/10/18 03:00:36;;;;;;;7.93;4.13;;;;;;;16.06;81.27;100703.94;1087738;54;20039;-78
2022/10/18 03:01:40;;;;;;;8.07;4.15;;;;;;;16.11;81.14;100708.00;1087795;54;20042;-78
2022/10/18 03:02:44;;;;;;;7.25;4.57;;;;;;;16.14;80.83;100702.31;1087772;54;20057;-78
2022/10/18 03:03:46;;;;;;;9.43;4.10;;;;;;;16.16;80.79;100700.25;1089042;47;20043;-78
2022/10/18 03:04:50;;;;;;;7.07;3.90;;;;;;;16.17;80.56;100700.13;1090203;47;20037;-78
2022/10/18 03:05:52;;;;;;;8.10;4.70;;;;;;;16.12;80.93;100705.13;1088099;47;20410;-78
2022/10/18 03:06:56;;;;;;;13.20;5.10;;;;;;;16.10;80.76;100696.41;1087744;54;20054;-78
2022/10/18 03:08:00;;;;;;;9.60;4.57;;;;;;;16.10;80.79;100696.41;1088163;47;20030;-78
2022/10/18 03:09:05;;;;;;;9.32;4.97;;;;;;;16.04;81.11;100687.09;1088083;47;20042;-78
2022/10/18 03:10:08;;;;;;;10.77;4.70;;;;;;;16.08;80.76;100692.16;1088756;47;20041;-78
2022/10/18 03:11:12;;;;;;;9.45;4.47;;;;;;;16.05;80.92;100690.63;1088420;47;20041;-78
2022/10/18 03:12:13;;;;;;;7.72;3.65;;;;;;;16.09;80.63;100696.53;1088116;47;20034;-78
2022/10/18 03:13:17;;;;;;;6.28;3.95;;;;;;;16.12;80.59;100686.25;1087725;54;20038;-78
2022/10/18 03:14:19;;;;;;;7.05;4.30;;;;;;;16.14;80.38;100695.03;1089151;47;20041;-78
2022/10/18 03:15:23;;;;;;;8.25;4.00;;;;;;;16.13;80.72;100698.75;1087687;54;20050;-78
2022/10/18 03:16:24;;;;;;;8.15;4.32;;;;;;;16.15;80.41;100695.91;1088285;47;20030;-78
2022/10/18 03:17:29;;;;;;;7.10;3.67;;;;;;;16.18;80.59;100698.25;1090779;39;20451;-78
2022/10/18 03:18:30;;;;;;;6.28;3.85;;;;;;;16.22;80.34;100696.91;1087762;54;20026;-78
2022/10/18 03:19:34;;;;;;;6.60;4.30;;;;;;;16.22;80.16;100695.06;1087704;54;20031;-78
2022/10/18 03:20:36;;;;;;;6.25;3.47;;;;;;;16.21;80.28;100692.53;1087797;54;20038;-79
2022/10/18 03:21:40;;;;;;;7.95;4.18;;;;;;;16.14;80.47;100696.91;1088772;46;20037;-79
2022/10/18 03:22:41;;;;;;;8.95;3.90;;;;;;;16.09;80.86;100705.50;1088095;54;20057;-78
2022/10/18 03:23:48;;;;;;;8.02;4.30;;;;;;;16.05;80.37;100693.34;1087958;54;20079;-78
2022/10/18 03:24:49;;;;;;;6.82;3.85;;;;;;;16.09;80.83;100699.25;1091821;46;20056;-78
2022/10/18 03:25:53;;;;;;;8.13;4.70;;;;;;;16.05;80.78;100696.88;1088074;54;20031;-79
2022/10/18 03:26:55;;;;;;;10.45;5.10;;;;;;;16.04;80.98;100700.59;1088056;54;20038;-79
2022/10/18 03:27:59;;;;;;;8.35;4.32;;;;;;;16.09;80.55;100697.41;1088313;46;20034;-79
2022/10/18 03:29:00;;;;;;;7.30;4.10;;;;;;;16.16;80.35;100701.13;1089863;46;20026;-78
2022/10/18 03:30:05;;;;;;;7.85;3.83;;;;;;;16.21;80.08;100692.53;1088078;54;20101;-79
2022/10/18 03:31:06;;;;;;;10.52;4.68;;;;;;;16.13;80.25;100696.03;1088518;46;20038;-78
2022/10/18 03:32:10;;;;;;;8.13;4.97;;;;;;;15.98;80.80;100701.22;1089781;46;20035;-79
2022/10/18 03:33:12;;;;;;;8.60;5.20;;;;;;;15.93;81.47;100700.91;1088118;54;20054;-78
2022/10/18 03:34:16;;;;;;;9.63;4.68;;;;;;;15.89;81.36;100694.13;1088114;54;20097;-79
2022/10/18 03:35:18;;;;;;;10.48;4.55;;;;;;;16.04;80.94;100697.03;1087999;54;20069;-80
2022/10/18 03:36:22;;;;;;;8.32;4.88;;;;;;;16.09;80.89;100694.72;1088065;54;20051;-79
2022/10/18 03:37:23;;;;;;;6.50;4.45;;;;;;;16.15;80.72;100695.91;1088352;46;20035;-78
2022/10/18 03:38:27;;;;;;;9.35;4.93;;;;;;;16.10;80.57;100691.00;1091125;39;20269;-79
2022/10/18 03:39:34;;;;;;;7.22;4.85;;;;;;;16.17;80.34;100683.06;1088084;54;20018;-77
2022/10/18 03:40:36;;;;;;;9.10;4.75;;;;;;;16.19;80.06;100689.16;1088078;54;20034;-78
2022/10/18 03:41:40;;;;;;;10.07;4.30;;;;;;;16.21;80.23;100684.44;1088555;46;20034;-78
2022/10/18 03:42:41;;;;;;;9.93;4.68;;;;;;;16.17;80.28;100685.75;1088071;54;20018;-77
2022/10/18 03:43:45;;;;;;;12.68;4.68;;;;;;;16.16;80.37;100689.47;1088051;54;20046;-78
2022/10/18 03:44:47;;;;;;;8.00;3.80;;;;;;;16.21;80.18;100689.84;1088459;46;20037;-78
2022/10/18 03:45:51;;;;;;;9.32;3.67;;;;;;;16.25;80.04;100690.34;1088030;54;20030;-79
2022/10/18 03:46:52;;;;;;;7.50;3.97;;;;;;;16.24;80.12;100692.22;1088073;54;20057;-78
2022/10/18 03:47:57;;;;;;;9.95;4.40;;;;;;;16.20;80.26;100690.84;1088151;54;20030;-78
2022/10/18 03:48:58;;;;;;;9.63;4.72;;;;;;;16.21;80.13;100687.97;1088119;54;20035;-78
2022/10/18 03:50:02;;;;;;;9.68;4.60;;;;;;;16.24;80.25;100692.22;1088373;46;20030;-78
2022/10/18 03:51:04;;;;;;;8.35;4.55;;;;;;;16.21;80.13;100696.06;1088143;46;20035;-78
2022/10/18 03:52:08;;;;;;;10.95;4.65;;;;;;;16.19;80.15;100698.09;1088096;54;20308;-78
2022/10/18 03:53:10;;;;;;;8.32;4.75;;;;;;;16.20;80.14;100693.53;1088342;46;20015;-78
2022/10/18 03:54:14;;;;;;;8.25;4.65;;;;;;;16.15;80.17;100699.44;1088059;54;20022;-78
2022/10/18 03:55:18;;;;;;;6.85;4.68;;;;;;;16.13;80.51;100701.44;1089007;46;20014;-78
2022/10/18 03:56:22;;;;;;;9.75;4.75;;;;;;;16.10;80.43;100696.41;1088131;54;20074;-78
2022/10/18 03:57:23;;;;;;;9.10;4.57;;;;;;;16.12;80.54;100696.22;1088855;46;20034;-78
2022/10/18 03:58:27;;;;;;;11.65;5.13;;;;;;;16.07;80.77;100702.09;1089970;46;20031;-78
2022/10/18 03:59:29;;;;;;;9.07;4.55;;;;;;;15.99;80.79;100700.22;1087995;54;20039;-79
2022/10/18 04:00:33;;;;;;;10.82;4.93;;;;;;;16.05;80.62;100699.59;1090354;46;20030;-78
2022/10/18 04:01:35;;;;;;;8.80;4.70;;;;;;;16.06;80.62;100703.94;1088116;54;20026;-79
2022/10/18 04:02:39;;;;;;;7.03;4.65;;;;;;;16.08;80.63;100711.03;1088078;54;20071;-79
2022/10/18 04:03:40;;;;;;;8.35;4.70;;;;;;;16.06;80.78;100700.41;1087986;54;20038;-78
2022/10/18 04:04:44;;;;;;;8.27;4.25;;;;;;;16.06;80.65;100703.94;1088679;46;20031;-78
2022/10/18 04:05:46;;;;;;;8.48;4.68;;;;;;;16.05;80.64;100704.97;1088089;54;20023;-78
2022/10/18 04:06:51;;;;;;;7.10;4.45;;;;;;;16.02;81.01;100710.69;1088161;54;20041;-78
2022/10/18 04:07:52;;;;;;;9.13;4.50;;;;;;;16.03;81.12;100717.78;1088216;47;20066;-78
2022/10/18 04:08:57;;;;;;;6.97;4.75;;;;;;;16.09;80.85;100710.88;1089442;46;20037;-78
2022/10/18 04:09:58;;;;;;;8.40;4.50;;;;;;;16.11;80.56;100714.25;1087984;54;20037;-79
2022/10/18 04:11:10;;;;;;;6.15;4.20;;;;;;;16.11;80.40;100714.25;1088095;54;20112;-79
2022/10/18 04:12:12;;;;;;;8.20;4.50;;;;;;;16.15;80.76;100712.09;1088075;54;20041;-79
2022/10/18 04:13:16;;;;;;;7.22;4.10;;;;;;;16.16;80.25;100716.44;1088010;54;20045;-79
2022/10/18 04:14:20;;;;;;;7.07;4.38;;;;;;;16.21;80.17;100716.81;1088020;54;20035;-79
2022/10/18 04:15:24;;;;;;;5.65;3.75;;;;;;;16.18;80.11;100709.91;1088814;46;20046;-78
2022/10/18 04:16:25;;;;;;;6.97;3.85;;;;;;;16.21;80.13;100711.41;1090316;46;20041;-79
2022/10/18 04:34:05;;;;;;;;;;;;;;;;;;;;;
2022/10/18 05:00:35;;;;;;;6.72;4.30;;;;;;;16.07;81.45;100739.88;1086197;54;20034;-83
2022/10/18 05:01:37;;;;;;;6.20;3.60;;;;;;;16.13;81.23;100732.97;1088614;54;20102;-81
2022/10/18 05:02:41;;;;;;;6.38;4.55;;;;;;;16.17;80.99;100737.00;1088556;54;20019;-83
2022/10/18 05:03:43;;;;;;;8.52;4.38;;;;;;;16.18;80.78;100731.47;1088510;54;20685;-84
2022/10/18 05:04:49;;;;;;;12.05;4.25;;;;;;;16.19;80.73;100726.91;1088523;54;20063;-84
2022/10/18 05:05:51;;;;;;;10.27;5.05;;;;;;;16.12;81.15;100726.72;1088662;54;20026;-84
2022/10/18 05:07:01;;;;;;;9.55;5.32;;;;;;;16.05;80.99;100731.94;1088518;54;20042;-83
2022/10/18 05:08:04;;;;;;;10.65;5.78;;;;;;;16.03;81.36;100730.41;1088481;54;20106;-84
2022/10/18 05:09:23;;;;;;;12.85;5.93;;;;;;;16.04;81.23;100738.34;1088601;54;20109;-83
2022/10/18 05:10:25;;;;;;;12.10;5.63;;;;;;;16.10;81.33;100725.19;1088646;54;20019;-84
2022/10/18 05:11:29;;;;;;;8.23;5.22;;;;;;;16.12;81.20;100734.81;1088510;54;20029;-82
2022/10/18 07:15:21;;;;;;;;;;;;;;;;;;;;;
2022/10/18 07:19:32;;;;;;;9.43;5.63;;;;;;;17.12;76.76;100774.44;1087671;54;20062;-82
2022/10/18 07:20:34;;;;;;;9.60;5.60;;;;;;;17.20;76.55;100775.44;1088243;54;20042;-82
2022/10/18 07:22:08;;;;;;;10.20;5.75;;;;;;;17.19;75.28;100779.13;1088682;54;20569;-82
2022/10/18 07:23:27;;;;;;;13.60;5.43;;;;;;;17.03;75.27;100786.25;1088467;54;20034;-82
2022/10/18 07:24:32;;;;;;;8.40;4.80;;;;;;;17.12;76.07;100787.94;1088586;54;20039;-82
2022/10/18 07:27:28;;;;;;;9.52;5.13;;;;;;;17.05;76.37;100789.59;1092565;46;20624;-82
2022/10/18 08:04:29;;;;;;;8.02;4.60;;;;;;;17.37;75.62;100796.00;1088299;54;20071;-84
2022/10/18 08:10:46;;;;;;;9.05;4.93;;;;;;;17.43;75.49;100805.28;1088183;54;20030;-80
2022/10/18 08:11:48;;;;;;;9.07;4.88;;;;;;;17.48;75.52;100808.31;1088043;54;20022;-81
2022/10/18 08:13:17;;;;;;;7.43;4.70;;;;;;;17.46;75.01;100810.34;1088508;46;20014;-83
2022/10/18 09:26:09;;;;;;;10.30;5.32;;;;;;;18.40;75.58;100844.91;1087225;54;21137;-82
2022/10/18 09:27:18;;;;;;;10.15;5.68;;;;;;;18.38;75.81;100841.53;1088506;54;20022;-84
2022/10/18 09:28:36;;;;;;;10.02;5.05;;;;;;;18.49;75.37;100838.41;1088377;54;20026;-83
2022/10/18 09:29:59;;;;;;;7.53;4.85;;;;;;;18.73;74.28;100844.69;1088691;39;20608;-82
2022/10/18 09:31:11;;;;;;;7.53;4.68;;;;;;;18.79;74.34;100835.88;1087952;54;20067;-81
2022/10/18 09:32:27;;;;;;;6.53;4.68;;;;;;;18.93;73.97;100838.84;1088022;54;20037;-80
2022/10/18 09:33:50;;;;;;;8.15;4.22;;;;;;;18.95;73.55;100828.69;1088284;54;20046;-84
2022/10/18 09:34:56;;;;;;;7.13;4.07;;;;;;;19.07;73.86;100835.38;1088128;54;20041;-82
2022/10/18 09:36:04;;;;;;;8.02;4.32;;;;;;;19.37;72.78;100830.00;1087918;54;20037;-81
2022/10/18 09:37:11;;;;;;;7.38;4.25;;;;;;;19.69;72.02;100828.00;1091514;39;20442;-81
2022/10/18 09:38:25;;;;;;;8.18;4.47;;;;;;;19.87;71.35;100830.38;1091430;39;20438;-80
2022/10/18 09:44:59;;;;;;;6.80;4.60;;;;;;;19.60;71.30;100835.38;1088132;54;20074;-84
2022/10/18 09:49:09;;;;;;;9.35;4.22;;;;;;;19.82;69.52;100827.34;1088058;54;20025;-84
2022/10/18 09:51:20;;;;;;;7.78;4.55;;;;;;;19.70;69.87;100832.41;1088153;54;20030;-84
2022/10/18 09:52:33;;;;;;;8.77;4.05;;;;;;;19.40;70.55;100840.47;1088215;54;20082;-82
2022/10/18 09:53:42;;;;;;;9.48;3.92;;;;;;;19.40;70.62;100834.22;1088161;54;20864;-82
2022/10/18 09:54:50;;;;;;;7.72;3.80;;;;;;;19.64;70.01;100838.56;1088119;54;20023;-82
2022/10/18 09:56:04;;;;;;;7.20;3.85;;;;;;;19.61;69.23;100839.75;1088163;54;20015;-85
2022/10/18 09:57:13;;;;;;;6.50;4.13;;;;;;;19.63;69.77;100835.00;1088179;54;20014;-84
2022/10/18 09:58:19;;;;;;;8.48;3.67;;;;;;;19.73;69.66;100832.03;1088236;54;20019;-84
2022/10/18 09:59:37;;;;;;;7.15;4.18;;;;;;;19.75;69.56;100842.69;1088204;54;20027;-83
2022/10/18 10:00:54;;;;;;;6.65;4.07;;;;;;;19.53;69.98;100833.59;1088135;54;20034;-84
2022/10/18 10:11:47;;;;;;;7.45;4.35;;;;;;;19.91;68.30;100837.09;1088445;54;20153;-84
2022/10/18 10:17:44;;;;;;;5.13;3.30;;;;;;;21.15;66.45;100835.41;1087999;54;20025;-85
2022/10/18 16:56:42;;;;;;;4.30;2.25;;;;;;;21.47;62.50;100835.88;1087071;54;20377;-80
2022/10/18 16:57:43;;;;;;;4.18;2.22;;;;;;;21.29;63.38;100839.06;1088521;54;20023;-83
2022/10/18 16:58:51;;;;;;;4.90;2.30;;;;;;;21.18;63.58;100845.91;1088475;54;20037;-83
2022/10/18 16:59:52;;;;;;;4.20;2.20;;;;;;;21.14;63.86;100847.31;1088637;54;20647;-82
2022/10/18 17:00:57;;;;;;;5.45;2.40;;;;;;;21.02;64.24;100840.72;1088557;54;20039;-82
2022/10/18 17:02:04;;;;;;;6.07;2.60;;;;;;;20.93;64.43;100844.59;1088605;54;20022;-83
2022/10/18 17:03:08;;;;;;;6.07;2.55;;;;;;;20.82;64.95;100848.66;1088426;54;20082;-82
2022/10/18 17:04:26;;;;;;;5.25;2.30;;;;;;;20.79;65.06;100854.47;1088069;54;20038;-81
2022/10/18 17:05:29;;;;;;;5.22;2.40;;;;;;;20.76;64.90;100846.75;1088432;54;20055;-81
2022/10/18 17:06:35;;;;;;;5.85;2.65;;;;;;;20.71;65.28;100848.09;1087877;54;20065;-79
2022/10/18 17:07:39;;;;;;;5.25;2.10;;;;;;;20.69;65.25;100852.88;1087657;54;20019;-78
2022/10/18 17:08:44;;;;;;;4.50;2.25;;;;;;;20.69;65.25;100852.88;1087725;54;20018;-78
2022/10/18 17:09:46;;;;;;;4.85;1.90;;;;;;;20.65;65.66;100853.47;1087662;54;20015;-78
2022/10/18 17:10:59;;;;;;;4.05;2.25;;;;;;;20.62;65.44;100860.13;1087733;54;20034;-78
2022/10/18 17:12:07;;;;;;;5.15;2.20;;;;;;;20.52;66.02;100856.88;1088782;46;20022;-78
2022/10/18 17:13:11;;;;;;;8.38;2.35;;;;;;;20.50;65.96;100861.69;1087729;54;20045;-78
2022/10/18 17:14:15;;;;;;;5.82;2.20;;;;;;;20.48;66.37;100861.03;1087758;54;20033;-78
2022/10/18 17:15:22;;;;;;;5.40;2.28;;;;;;;20.47;66.33;100862.03;1087743;54;20057;-78
2022/10/18 17:16:29;;;;;;;4.38;2.00;;;;;;;20.46;66.37;100857.66;1087789;54;20034;-79
2022/10/18 17:17:31;;;;;;;4.45;2.33;;;;;;;20.44;66.46;100859.69;1087808;54;20023;-79
2022/10/18 17:18:44;;;;;;;3.95;2.28;;;;;;;20.47;66.35;100867.47;1087691;54;20031;-79
2022/10/18 17:19:59;;;;;;;3.70;2.20;;;;;;;20.43;66.47;100858.88;1087768;46;20053;-78
2022/10/18 17:21:44;;;;;;;4.22;2.25;;;;;;;20.25;67.15;100865.56;1089262;46;20090;-78
2022/10/18 17:22:56;;;;;;;6.75;2.75;;;;;;;20.22;67.18;100868.63;1087840;54;20042;-80
2022/10/18 17:24:04;;;;;;;4.22;2.63;;;;;;;20.16;67.63;100872.13;1087572;54;20034;-79
2022/10/18 17:25:07;;;;;;;5.18;2.75;;;;;;;20.15;67.67;100864.13;1088153;47;20030;-80
2022/10/18 17:26:16;;;;;;;3.90;2.47;;;;;;;20.23;67.51;100869.47;1091331;39;20239;-79
2022/10/18 17:27:22;;;;;;;5.60;2.85;;;;;;;20.18;67.51;100871.91;1088738;46;20062;-79
2022/10/18 17:28:27;;;;;;;5.43;2.40;;;;;;;20.19;67.73;100870.88;1088493;46;20050;-80
2022/10/18 17:29:29;;;;;;;4.18;2.75;;;;;;;20.19;67.68;100870.88;1088145;46;20030;-79
2022/10/18 17:30:33;;;;;;;4.57;2.50;;;;;;;20.20;67.62;100862.53;1087865;54;20130;-78
2022/10/18 17:31:34;;;;;;;3.78;2.08;;;;;;;20.18;67.86;100871.91;1087784;54;20034;-79
2022/10/18 17:32:39;;;;;;;4.03;2.00;;;;;;;20.20;67.92;100864.44;1087804;54;20750;-77
2022/10/18 17:33:43;;;;;;;3.97;2.17;;;;;;;20.19;67.90;100860.84;1087975;54;20769;-78
2022/10/18 17:34:44;;;;;;;5.45;2.53;;;;;;;20.17;67.92;100870.22;1087980;54;20034;-79
2022/10/18 17:35:50;;;;;;;4.15;2.30;;;;;;;20.22;67.52;100868.63;1088072;54;20015;-78
2022/10/18 17:36:51;;;;;;;4.32;2.30;;;;;;;20.21;67.82;100872.38;1089009;46;20036;-79
2022/10/18 17:37:55;;;;;;;4.60;2.33;;;;;;;20.19;67.76;100868.16;1088439;46;20037;-79
2022/10/18 17:39:00;;;;;;;4.05;2.22;;;;;;;20.18;67.98;100871.91;1087998;54;20026;-79
2022/10/18 17:40:01;;;;;;;4.28;2.15;;;;;;;20.16;68.06;100866.69;1088919;46;20022;-79
2022/10/18 17:41:08;;;;;;;4.63;2.72;;;;;;;20.15;68.14;100870.44;1088077;54;20043;-79
2022/10/18 17:42:10;;;;;;;4.70;2.88;;;;;;;20.10;68.18;100865.56;1088507;46;20046;-79
2022/10/18 17:43:16;;;;;;;8.40;2.70;;;;;;;20.03;68.64;100872.75;1088256;54;20026;-79
2022/10/18 17:46:32;;;;;;;;;;;;;;;19.69;69.56;100876.81;1088344;46;20026;-80
2022/10/18 17:47:37;;;;;;;6.13;3.00;;;;;;;19.86;69.33;100880.25;1088225;54;19969;-80
2022/10/18 17:49:14;;;;;;;5.55;2.22;;;;;;;19.87;68.96;100881.06;1088321;54;20022;-82
2022/10/18 17:50:17;;;;;;;6.32;2.65;;;;;;;19.92;68.96;100870.53;1089807;46;20042;-80
2022/10/18 18:08:27;;;;;;;4.20;2.17;;;;;;;19.81;69.35;100879.91;1088487;54;20019;-82
2022/10/18 18:31:26;;;;;;;4.05;2.58;;;;;;;19.46;71.19;100882.28;1087841;54;20090;-81
2022/10/18 18:32:36;;;;;;;4.90;2.65;;;;;;;19.57;70.52;100881.00;1087746;54;20042;-80
2022/10/18 18:33:58;;;;;;;5.45;2.97;;;;;;;19.63;70.55;100883.00;1087762;54;20018;-83
2022/10/18 18:37:27;;;;;;;4.53;2.42;;;;;;;19.49;70.94;100882.75;1088011;54;20022;-83
2022/10/18 18:38:30;;;;;;;5.05;2.72;;;;;;;19.47;71.14;100881.25;1087223;54;20041;-79
2022/10/18 18:41:42;;;;;;;8.13;3.95;;;;;;;19.34;71.98;100881.88;1087826;54;20033;-83
2022/10/18 18:44:45;;;;;;;6.07;3.90;;;;;;;19.26;72.13;100888.22;1087548;54;20038;-82
2022/10/18 18:49:39;;;;;;;6.25;4.28;;;;;;;19.11;73.39;100890.84;1087716;54;20034;-82
2022/10/18 18:53:24;;;;;;;5.85;3.55;;;;;;;19.18;73.00;100888.28;1087484;54;20038;-81
2022/10/18 18:58:37;;;;;;;5.70;3.80;;;;;;;19.28;72.30;100885.31;1087861;54;20090;-83
2022/10/18 19:01:48;;;;;;;5.15;3.50;;;;;;;19.30;72.10;100883.25;1089072;46;20082;-82
2022/10/18 19:03:12;;;;;;;;;;;;;;;;;;;;;
2022/10/18 19:06:21;;;;;;;5.60;3.92;;;;;;;19.18;73.11;100883.69;1087485;54;20045;-79
2022/10/18 19:07:25;;;;;;;6.78;3.92;;;;;;;19.20;72.97;100888.09;1087698;46;20420;-79
2022/10/18 19:08:27;;;;;;;7.30;4.07;;;;;;;19.22;73.12;100881.47;1087606;47;20060;-79
2022/10/18 19:09:31;;;;;;;7.88;4.00;;;;;;;19.20;73.25;100886.25;1089307;46;20026;-79
2022/10/18 19:10:33;;;;;;;7.22;4.22;;;;;;;19.26;73.06;100881.97;1087636;54;20078;-79
2022/10/18 19:11:39;;;;;;;5.78;3.83;;;;;;;19.29;72.96;100887.00;1088180;46;20041;-79
2022/10/18 19:12:40;;;;;;;10.73;3.95;;;;;;;19.28;73.03;100877.16;1087531;54;20026;-79
2022/10/18 19:18:40;;;;;;;5.35;4.15;;;;;;;19.03;73.99;100880.09;1087771;54;20022;-81
2022/10/18 19:19:44;;;;;;;6.15;3.85;;;;;;;19.09;73.70;100879.34;1087286;54;20042;-79
2022/10/18 19:26:12;;;;;;;6.05;4.00;;;;;;;19.03;73.59;100877.38;1087827;54;20034;-80
2022/10/18 19:27:42;;;;;;;5.32;3.58;;;;;;;18.86;74.95;100876.59;1088842;47;20042;-85
2022/10/18 20:04:05;;;;;;;;;;;;;;;;;;;;;
2022/10/18 20:36:31;;;;;;;9.55;4.80;;;;;;;17.99;78.27;100880.22;1088253;54;20073;-85
2022/10/18 20:56:07;;;;;;;6.47;4.05;;;;;;;17.72;78.97;100890.41;1088029;54;20042;-81
2022/10/18 20:57:10;;;;;;;5.90;3.67;;;;;;;17.77;78.79;100891.56;1087723;54;20082;-82
2022/10/18 21:05:17;;;;;;;8.77;4.22;;;;;;;17.64;79.49;100882.28;1087479;54;20098;-79
2022/10/18 21:06:20;;;;;;;8.38;4.50;;;;;;;17.66;79.10;100874.88;1088410;46;20061;-79
2022/10/18 21:07:24;;;;;;;5.93;4.40;;;;;;;17.72;78.83;100880.41;1087637;46;20026;-79
2022/10/18 21:08:26;;;;;;;7.68;4.65;;;;;;;17.75;78.52;100879.25;1087810;46;20038;-79
2022/10/18 21:09:30;;;;;;;6.30;4.40;;;;;;;17.73;78.57;100881.28;1087292;54;20078;-78
2022/10/18 21:10:31;;;;;;;8.18;5.03;;;;;;;17.72;78.68;100875.00;1088153;46;20033;-79
2022/10/18 21:11:40;;;;;;;6.80;4.90;;;;;;;17.70;79.18;100884.31;1087826;54;20030;-79
2022/10/18 21:12:42;;;;;;;7.15;4.95;;;;;;;17.67;78.97;100881.94;1088566;46;20031;-79
2022/10/18 21:13:46;;;;;;;8.52;4.95;;;;;;;17.65;79.20;100884.00;1090181;46;20066;-78
2022/10/18 21:14:50;;;;;;;6.95;5.00;;;;;;;17.66;79.17;100881.09;1088921;46;20061;-79
2022/10/18 21:15:55;;;;;;;6.65;4.55;;;;;;;17.67;78.99;100887.34;1088000;46;20030;-78
2022/10/18 21:16:59;;;;;;;9.57;5.57;;;;;;;17.66;78.95;100886.50;1087214;54;20031;-78
2022/10/18 21:18:00;;;;;;;6.85;4.63;;;;;;;17.60;79.48;100887.22;1087598;54;20030;-79
2022/10/18 21:19:05;;;;;;;7.15;4.82;;;;;;;17.61;79.09;100884.31;1087536;54;20076;-78
2022/10/18 21:20:09;;;;;;;8.05;4.80;;;;;;;17.57;79.40;100888.38;1087216;54;20110;-79
2022/10/18 21:32:28;;;;;;;7.47;4.78;;;;;;;17.37;80.25;100871.66;1087914;54;20074;-81
2022/10/18 21:37:40;;;;;;;9.68;4.80;;;;;;;17.19;80.70;100877.25;1087687;54;19995;-83
2022/10/18 21:38:49;;;;;;;6.53;4.97;;;;;;;17.23;80.83;100878.59;1087504;54;20026;-82
2022/10/18 21:39:53;;;;;;;7.60;5.18;;;;;;;17.23;80.60;100872.34;1088288;46;20038;-78
2022/10/18 22:00:18;;;;;;;7.35;6.13;;;;;;;16.88;82.04;100853.56;1087834;54;19987;-79
2022/10/18 22:01:20;;;;;;;10.73;6.05;;;;;;;16.93;81.78;100850.34;1087585;54;20042;-78
2022/10/18 22:02:24;;;;;;;9.45;5.72;;;;;;;17.03;81.72;100852.91;1087528;54;20030;-79
2022/10/18 22:03:26;;;;;;;6.32;5.22;;;;;;;17.11;81.09;100847.50;1087528;54;20034;-79
2022/10/18 22:04:34;;;;;;;7.90;5.00;;;;;;;17.14;80.92;100845.31;1087567;54;20042;-78
2022/10/18 22:05:36;;;;;;;7.88;5.40;;;;;;;17.17;80.71;100841.44;1087657;54;20090;-79
2022/10/18 22:06:40;;;;;;;8.63;5.00;;;;;;;17.22;80.68;100841.78;1087611;54;20038;-79
2022/10/18 22:07:41;;;;;;;6.03;4.68;;;;;;;17.23;80.55;100843.47;1087669;54;20018;-79
2022/10/18 22:08:48;;;;;;;7.80;4.70;;;;;;;17.26;80.65;100847.69;1087682;54;20083;-79
2022/10/18 22:09:50;;;;;;;6.60;4.68;;;;;;;17.28;80.38;100851.94;1087581;54;20034;-79
2022/10/18 22:10:54;;;;;;;7.68;5.10;;;;;;;17.26;80.41;100845.84;1088382;46;20014;-80
2022/10/18 22:26:18;;;;;;;9.55;5.57;;;;;;;16.47;83.52;100842.66;1087295;54;20857;-82
2022/10/18 22:27:44;;;;;;;;;;;;;;;;;;;;;
2022/10/18 22:54:49;;;;;;;6.68;4.18;;;;;;;16.43;82.46;100841.31;1087754;54;20010;-80
2022/10/18 22:55:51;;;;;;;6.30;4.75;;;;;;;16.48;82.33;100838.94;1087461;54;20030;-79
2022/10/18 22:56:55;;;;;;;6.15;4.40;;;;;;;16.53;81.94;100842.03;1089674;46;20058;-79
2022/10/18 22:57:56;;;;;;;7.30;4.78;;;;;;;16.55;81.67;100829.19;1087998;54;20037;-80
2022/10/18 23:27:13;;;;;;;7.40;5.72;;;;;;;15.75;84.49;100828.50;1088065;54;20078;-82
2022/10/18 23:28:33;;;;;;;6.50;5.00;;;;;;;15.85;84.11;100832.97;1088124;54;20104;-83
